sensor_id;sensor_type;location;lat;lon;timestamp;P1;durP1;ratioP1;P2;durP2;ratioP2
15946;SDS011;8072;52.554;7.966;2023-06-04T00:01:21;2.87;;;1.20;;
15946;SDS011;8072;52.554;7.966;2023-06-04T00:03:47;1.90;;;1.27;;
15946;SDS011;8072;52.554;7.966;2023-06-04T00:06:13;3.50;;;1.50;;
15946;SDS011;8072;52.554;7.966;2023-06-04T00:08:39;3.70;;;1.93;;
15946;SDS011;8072;52.554;7.966;2023-06-04T00:11:05;2.53;;;1.57;;
15946;SDS011;8072;52.554;7.966;2023-06-04T00:13:31;1.90;;;1.37;;
15946;SDS011;8072;52.554;7.966;2023-06-04T00:15:56;4.87;;;1.43;;
15946;SDS011;8072;52.554;7.966;2023-06-04T00:18:22;2.07;;;1.53;;
15946;SDS011;8072;52.554;7.966;2023-06-04T00:20:48;3.20;;;1.40;;
15946;SDS011;8072;52.554;7.966;2023-06-04T00:23:14;2.63;;;1.53;;
15946;SDS011;8072;52.554;7.966;2023-06-04T00:25:39;3.87;;;1.70;;
15946;SDS011;8072;52.554;7.966;2023-06-04T00:28:05;2.83;;;1.80;;
15946;SDS011;8072;52.554;7.966;2023-06-04T00:30:31;2.70;;;1.70;;
15946;SDS011;8072;52.554;7.966;2023-06-04T00:32:57;3.47;;;1.63;;
15946;SDS011;8072;52.554;7.966;2023-06-04T00:35:23;2.00;;;1.60;;
15946;SDS011;8072;52.554;7.966;2023-06-04T00:37:49;2.23;;;2.00;;
15946;SDS011;8072;52.554;7.966;2023-06-04T00:40:15;2.93;;;1.70;;
15946;SDS011;8072;52.554;7.966;2023-06-04T00:42:41;2.00;;;1.60;;
15946;SDS011;8072;52.554;7.966;2023-06-04T00:45:07;2.13;;;1.93;;
15946;SDS011;8072;52.554;7.966;2023-06-04T00:47:34;2.10;;;1.33;;
15946;SDS011;8072;52.554;7.966;2023-06-04T00:50:01;2.70;;;1.60;;
15946;SDS011;8072;52.554;7.966;2023-06-04T00:52:27;4.13;;;1.60;;
15946;SDS011;8072;52.554;7.966;2023-06-04T00:54:53;5.10;;;1.50;;
15946;SDS011;8072;52.554;7.966;2023-06-04T00:57:20;2.83;;;1.67;;
15946;SDS011;8072;52.554;7.966;2023-06-04T00:59:47;3.53;;;2.00;;
15946;SDS011;8072;52.554;7.966;2023-06-04T01:02:18;4.63;;;1.70;;
15946;SDS011;8072;52.554;7.966;2023-06-04T01:07:20;2.93;;;2.20;;
15946;SDS011;8072;52.554;7.966;2023-06-04T01:09:48;3.27;;;1.67;;
15946;SDS011;8072;52.554;7.966;2023-06-04T01:12:14;4.87;;;1.90;;
15946;SDS011;8072;52.554;7.966;2023-06-04T01:14:40;2.10;;;1.70;;
15946;SDS011;8072;52.554;7.966;2023-06-04T01:25:43;3.90;;;2.33;;
15946;SDS011;8072;52.554;7.966;2023-06-04T01:28:14;2.90;;;1.90;;
15946;SDS011;8072;52.554;7.966;2023-06-04T01:30:46;2.57;;;1.97;;
15946;SDS011;8072;52.554;7.966;2023-06-04T01:33:13;7.70;;;2.20;;
15946;SDS011;8072;52.554;7.966;2023-06-04T01:35:40;2.87;;;2.20;;
15946;SDS011;8072;52.554;7.966;2023-06-04T01:38:06;2.93;;;1.90;;
15946;SDS011;8072;52.554;7.966;2023-06-04T01:40:32;4.13;;;2.10;;
15946;SDS011;8072;52.554;7.966;2023-06-04T01:42:58;2.53;;;1.93;;
15946;SDS011;8072;52.554;7.966;2023-06-04T01:45:25;7.17;;;2.30;;
15946;SDS011;8072;52.554;7.966;2023-06-04T01:47:52;4.37;;;2.40;;
15946;SDS011;8072;52.554;7.966;2023-06-04T01:50:18;5.03;;;2.50;;
15946;SDS011;8072;52.554;7.966;2023-06-04T01:52:44;3.50;;;2.20;;
15946;SDS011;8072;52.554;7.966;2023-06-04T01:55:11;3.13;;;2.20;;
15946;SDS011;8072;52.554;7.966;2023-06-04T01:57:38;4.40;;;2.27;;
15946;SDS011;8072;52.554;7.966;2023-06-04T02:00:05;3.80;;;1.80;;
15946;SDS011;8072;52.554;7.966;2023-06-04T02:02:34;3.43;;;2.20;;
15946;SDS011;8072;52.554;7.966;2023-06-04T02:05:04;4.57;;;2.43;;
15946;SDS011;8072;52.554;7.966;2023-06-04T02:07:33;3.43;;;2.10;;
15946;SDS011;8072;52.554;7.966;2023-06-04T02:10:00;3.30;;;2.10;;
15946;SDS011;8072;52.554;7.966;2023-06-04T02:12:26;2.80;;;2.13;;
15946;SDS011;8072;52.554;7.966;2023-06-04T02:14:52;4.37;;;2.30;;
15946;SDS011;8072;52.554;7.966;2023-06-04T02:17:17;2.70;;;2.10;;
15946;SDS011;8072;52.554;7.966;2023-06-04T02:19:43;3.93;;;2.70;;
15946;SDS011;8072;52.554;7.966;2023-06-04T02:22:13;3.63;;;2.20;;
15946;SDS011;8072;52.554;7.966;2023-06-04T02:24:40;3.87;;;2.10;;
15946;SDS011;8072;52.554;7.966;2023-06-04T02:27:10;2.57;;;2.20;;
15946;SDS011;8072;52.554;7.966;2023-06-04T02:29:40;3.20;;;2.10;;
15946;SDS011;8072;52.554;7.966;2023-06-04T02:32:07;5.27;;;2.17;;
15946;SDS011;8072;52.554;7.966;2023-06-04T02:34:33;5.27;;;2.40;;
15946;SDS011;8072;52.554;7.966;2023-06-04T02:37:00;3.90;;;2.40;;
15946;SDS011;8072;52.554;7.966;2023-06-04T02:39:26;4.93;;;2.30;;
15946;SDS011;8072;52.554;7.966;2023-06-04T02:41:52;3.83;;;2.40;;
15946;SDS011;8072;52.554;7.966;2023-06-04T02:44:18;4.17;;;2.37;;
15946;SDS011;8072;52.554;7.966;2023-06-04T02:46:44;4.20;;;2.53;;
15946;SDS011;8072;52.554;7.966;2023-06-04T02:49:10;4.50;;;2.40;;
15946;SDS011;8072;52.554;7.966;2023-06-04T02:51:41;3.20;;;2.03;;
15946;SDS011;8072;52.554;7.966;2023-06-04T02:54:10;5.47;;;2.53;;
15946;SDS011;8072;52.554;7.966;2023-06-04T02:56:36;4.60;;;3.10;;
15946;SDS011;8072;52.554;7.966;2023-06-04T02:59:03;4.23;;;2.50;;
15946;SDS011;8072;52.554;7.966;2023-06-04T03:01:29;5.33;;;3.10;;
15946;SDS011;8072;52.554;7.966;2023-06-04T03:03:55;5.30;;;3.13;;
15946;SDS011;8072;52.554;7.966;2023-06-04T03:06:26;4.73;;;2.87;;
15946;SDS011;8072;52.554;7.966;2023-06-04T03:08:52;6.30;;;3.13;;
15946;SDS011;8072;52.554;7.966;2023-06-04T03:11:18;3.57;;;2.60;;
15946;SDS011;8072;52.554;7.966;2023-06-04T03:13:47;5.80;;;2.70;;
15946;SDS011;8072;52.554;7.966;2023-06-04T03:16:14;5.27;;;3.00;;
15946;SDS011;8072;52.554;7.966;2023-06-04T03:18:40;4.33;;;2.73;;
15946;SDS011;8072;52.554;7.966;2023-06-04T03:21:07;4.13;;;2.83;;
15946;SDS011;8072;52.554;7.966;2023-06-04T03:23:34;3.73;;;2.20;;
15946;SDS011;8072;52.554;7.966;2023-06-04T03:26:01;4.60;;;2.70;;
15946;SDS011;8072;52.554;7.966;2023-06-04T03:28:27;5.03;;;2.73;;
15946;SDS011;8072;52.554;7.966;2023-06-04T03:30:54;5.17;;;2.63;;
15946;SDS011;8072;52.554;7.966;2023-06-04T03:33:20;3.30;;;2.30;;
15946;SDS011;8072;52.554;7.966;2023-06-04T03:35:46;5.37;;;2.83;;
15946;SDS011;8072;52.554;7.966;2023-06-04T03:38:13;3.13;;;2.23;;
15946;SDS011;8072;52.554;7.966;2023-06-04T03:40:40;4.93;;;2.80;;
15946;SDS011;8072;52.554;7.966;2023-06-04T03:43:07;3.93;;;3.17;;
15946;SDS011;8072;52.554;7.966;2023-06-04T03:45:34;4.93;;;2.47;;
15946;SDS011;8072;52.554;7.966;2023-06-04T03:48:00;4.27;;;2.47;;
15946;SDS011;8072;52.554;7.966;2023-06-04T03:50:26;4.87;;;3.20;;
15946;SDS011;8072;52.554;7.966;2023-06-04T03:52:51;3.83;;;2.70;;
15946;SDS011;8072;52.554;7.966;2023-06-04T03:55:17;4.60;;;3.13;;
15946;SDS011;8072;52.554;7.966;2023-06-04T03:57:45;4.93;;;2.47;;
15946;SDS011;8072;52.554;7.966;2023-06-04T04:00:11;3.20;;;2.70;;
15946;SDS011;8072;52.554;7.966;2023-06-04T04:02:41;4.40;;;3.17;;
15946;SDS011;8072;52.554;7.966;2023-06-04T04:05:07;3.50;;;2.60;;
15946;SDS011;8072;52.554;7.966;2023-06-04T04:07:34;4.40;;;2.70;;
15946;SDS011;8072;52.554;7.966;2023-06-04T04:10:00;5.13;;;2.73;;
15946;SDS011;8072;52.554;7.966;2023-06-04T04:12:27;8.10;;;3.00;;
15946;SDS011;8072;52.554;7.966;2023-06-04T04:14:52;6.13;;;3.10;;
15946;SDS011;8072;52.554;7.966;2023-06-04T04:17:18;6.27;;;3.00;;
15946;SDS011;8072;52.554;7.966;2023-06-04T04:19:44;5.93;;;3.17;;
15946;SDS011;8072;52.554;7.966;2023-06-04T04:22:14;5.73;;;3.03;;
15946;SDS011;8072;52.554;7.966;2023-06-04T04:24:42;4.27;;;2.70;;
15946;SDS011;8072;52.554;7.966;2023-06-04T04:27:09;6.83;;;3.27;;
15946;SDS011;8072;52.554;7.966;2023-06-04T04:29:38;6.97;;;3.60;;
15946;SDS011;8072;52.554;7.966;2023-06-04T04:32:04;5.30;;;3.10;;
15946;SDS011;8072;52.554;7.966;2023-06-04T04:34:51;4.37;;;2.93;;
15946;SDS011;8072;52.554;7.966;2023-06-04T04:37:19;6.07;;;3.40;;
15946;SDS011;8072;52.554;7.966;2023-06-04T04:39:46;5.57;;;3.30;;
15946;SDS011;8072;52.554;7.966;2023-06-04T04:42:12;6.13;;;3.37;;
15946;SDS011;8072;52.554;7.966;2023-06-04T04:44:38;6.60;;;3.43;;
15946;SDS011;8072;52.554;7.966;2023-06-04T04:47:04;4.67;;;3.50;;
15946;SDS011;8072;52.554;7.966;2023-06-04T04:49:29;5.27;;;3.43;;
15946;SDS011;8072;52.554;7.966;2023-06-04T04:51:55;6.03;;;3.53;;
15946;SDS011;8072;52.554;7.966;2023-06-04T04:54:21;6.50;;;3.50;;
15946;SDS011;8072;52.554;7.966;2023-06-04T04:56:47;6.60;;;3.40;;
15946;SDS011;8072;52.554;7.966;2023-06-04T04:59:12;6.57;;;4.20;;
15946;SDS011;8072;52.554;7.966;2023-06-04T05:01:38;7.23;;;4.00;;
15946;SDS011;8072;52.554;7.966;2023-06-04T05:04:04;6.90;;;3.70;;
15946;SDS011;8072;52.554;7.966;2023-06-04T05:06:30;5.93;;;3.33;;
15946;SDS011;8072;52.554;7.966;2023-06-04T05:08:58;8.33;;;3.53;;
15946;SDS011;8072;52.554;7.966;2023-06-04T05:11:24;6.10;;;3.90;;
15946;SDS011;8072;52.554;7.966;2023-06-04T05:13:50;4.93;;;3.63;;
15946;SDS011;8072;52.554;7.966;2023-06-04T05:16:16;5.20;;;3.63;;
15946;SDS011;8072;52.554;7.966;2023-06-04T05:18:45;5.10;;;3.53;;
15946;SDS011;8072;52.554;7.966;2023-06-04T05:21:11;8.37;;;4.10;;
15946;SDS011;8072;52.554;7.966;2023-06-04T05:23:38;6.70;;;3.63;;
15946;SDS011;8072;52.554;7.966;2023-06-04T05:26:04;6.97;;;3.93;;
15946;SDS011;8072;52.554;7.966;2023-06-04T05:28:31;6.53;;;3.43;;
15946;SDS011;8072;52.554;7.966;2023-06-04T05:30:59;6.13;;;3.67;;
15946;SDS011;8072;52.554;7.966;2023-06-04T05:33:26;7.03;;;4.23;;
15946;SDS011;8072;52.554;7.966;2023-06-04T05:35:52;4.90;;;3.83;;
15946;SDS011;8072;52.554;7.966;2023-06-04T05:38:23;10.43;;;4.37;;
15946;SDS011;8072;52.554;7.966;2023-06-04T05:40:55;8.57;;;4.30;;
15946;SDS011;8072;52.554;7.966;2023-06-04T05:43:21;8.43;;;3.77;;
15946;SDS011;8072;52.554;7.966;2023-06-04T05:45:47;5.30;;;3.80;;
15946;SDS011;8072;52.554;7.966;2023-06-04T05:48:13;5.30;;;3.73;;
15946;SDS011;8072;52.554;7.966;2023-06-04T05:50:41;7.00;;;4.07;;
15946;SDS011;8072;52.554;7.966;2023-06-04T05:53:06;6.77;;;3.67;;
15946;SDS011;8072;52.554;7.966;2023-06-04T05:55:32;5.27;;;4.10;;
15946;SDS011;8072;52.554;7.966;2023-06-04T05:57:58;7.47;;;3.80;;
15946;SDS011;8072;52.554;7.966;2023-06-04T06:00:24;5.77;;;4.23;;
15946;SDS011;8072;52.554;7.966;2023-06-04T06:02:50;8.83;;;4.30;;
15946;SDS011;8072;52.554;7.966;2023-06-04T06:05:17;7.13;;;4.00;;
15946;SDS011;8072;52.554;7.966;2023-06-04T06:07:44;5.53;;;3.63;;
15946;SDS011;8072;52.554;7.966;2023-06-04T06:10:11;7.53;;;3.93;;
15946;SDS011;8072;52.554;7.966;2023-06-04T06:12:38;5.43;;;3.93;;
15946;SDS011;8072;52.554;7.966;2023-06-04T06:15:04;4.67;;;3.87;;
15946;SDS011;8072;52.554;7.966;2023-06-04T06:17:30;6.70;;;3.93;;
15946;SDS011;8072;52.554;7.966;2023-06-04T06:19:57;7.37;;;4.63;;
15946;SDS011;8072;52.554;7.966;2023-06-04T06:22:24;6.00;;;4.13;;
15946;SDS011;8072;52.554;7.966;2023-06-04T06:24:50;6.37;;;4.43;;
15946;SDS011;8072;52.554;7.966;2023-06-04T06:27:16;8.50;;;4.00;;
15946;SDS011;8072;52.554;7.966;2023-06-04T06:29:42;7.67;;;4.03;;
15946;SDS011;8072;52.554;7.966;2023-06-04T06:32:12;5.17;;;3.53;;
15946;SDS011;8072;52.554;7.966;2023-06-04T06:34:38;4.93;;;3.97;;
15946;SDS011;8072;52.554;7.966;2023-06-04T06:37:04;6.20;;;3.60;;
15946;SDS011;8072;52.554;7.966;2023-06-04T06:39:31;6.13;;;3.93;;
15946;SDS011;8072;52.554;7.966;2023-06-04T06:41:57;7.30;;;3.87;;
15946;SDS011;8072;52.554;7.966;2023-06-04T06:44:23;6.77;;;3.83;;
15946;SDS011;8072;52.554;7.966;2023-06-04T06:46:49;6.20;;;3.70;;
15946;SDS011;8072;52.554;7.966;2023-06-04T06:49:15;8.43;;;4.27;;
15946;SDS011;8072;52.554;7.966;2023-06-04T06:51:41;6.63;;;4.30;;
15946;SDS011;8072;52.554;7.966;2023-06-04T06:54:10;7.13;;;3.93;;
15946;SDS011;8072;52.554;7.966;2023-06-04T06:56:39;8.00;;;4.10;;
15946;SDS011;8072;52.554;7.966;2023-06-04T06:59:06;6.03;;;3.90;;
15946;SDS011;8072;52.554;7.966;2023-06-04T07:01:32;6.30;;;3.83;;
15946;SDS011;8072;52.554;7.966;2023-06-04T07:03:58;6.33;;;3.40;;
15946;SDS011;8072;52.554;7.966;2023-06-04T07:06:24;7.90;;;3.77;;
15946;SDS011;8072;52.554;7.966;2023-06-04T07:08:50;6.87;;;3.43;;
15946;SDS011;8072;52.554;7.966;2023-06-04T07:11:17;6.63;;;4.00;;
15946;SDS011;8072;52.554;7.966;2023-06-04T07:13:43;6.13;;;3.50;;
15946;SDS011;8072;52.554;7.966;2023-06-04T07:16:09;6.43;;;3.33;;
15946;SDS011;8072;52.554;7.966;2023-06-04T07:18:34;5.00;;;3.67;;
15946;SDS011;8072;52.554;7.966;2023-06-04T07:21:00;8.37;;;4.20;;
15946;SDS011;8072;52.554;7.966;2023-06-04T07:23:26;4.80;;;3.47;;
15946;SDS011;8072;52.554;7.966;2023-06-04T07:25:53;7.87;;;3.30;;
15946;SDS011;8072;52.554;7.966;2023-06-04T07:28:19;4.93;;;3.30;;
15946;SDS011;8072;52.554;7.966;2023-06-04T07:30:45;4.07;;;3.20;;
15946;SDS011;8072;52.554;7.966;2023-06-04T07:33:11;4.73;;;3.13;;
15946;SDS011;8072;52.554;7.966;2023-06-04T07:35:37;5.57;;;3.77;;
15946;SDS011;8072;52.554;7.966;2023-06-04T07:38:03;4.43;;;3.00;;
15946;SDS011;8072;52.554;7.966;2023-06-04T07:40:29;3.53;;;2.60;;
15946;SDS011;8072;52.554;7.966;2023-06-04T07:42:55;7.27;;;3.00;;
15946;SDS011;8072;52.554;7.966;2023-06-04T07:45:22;8.87;;;2.80;;
15946;SDS011;8072;52.554;7.966;2023-06-04T07:47:47;6.53;;;2.60;;
15946;SDS011;8072;52.554;7.966;2023-06-04T07:50:14;5.50;;;3.40;;
15946;SDS011;8072;52.554;7.966;2023-06-04T07:52:40;6.83;;;2.57;;
15946;SDS011;8072;52.554;7.966;2023-06-04T07:55:06;5.00;;;3.03;;
15946;SDS011;8072;52.554;7.966;2023-06-04T07:57:33;5.73;;;3.00;;
15946;SDS011;8072;52.554;7.966;2023-06-04T08:00:00;4.93;;;2.73;;
15946;SDS011;8072;52.554;7.966;2023-06-04T08:02:27;6.97;;;2.60;;
15946;SDS011;8072;52.554;7.966;2023-06-04T08:04:53;3.43;;;2.47;;
15946;SDS011;8072;52.554;7.966;2023-06-04T08:07:19;4.23;;;2.43;;
15946;SDS011;8072;52.554;7.966;2023-06-04T08:09:45;3.40;;;2.50;;
15946;SDS011;8072;52.554;7.966;2023-06-04T08:12:10;3.13;;;2.50;;
15946;SDS011;8072;52.554;7.966;2023-06-04T08:14:36;2.43;;;2.00;;
15946;SDS011;8072;52.554;7.966;2023-06-04T08:17:02;3.67;;;2.23;;
15946;SDS011;8072;52.554;7.966;2023-06-04T08:19:28;3.90;;;2.23;;
15946;SDS011;8072;52.554;7.966;2023-06-04T08:21:54;3.90;;;2.00;;
15946;SDS011;8072;52.554;7.966;2023-06-04T08:24:20;5.03;;;2.40;;
15946;SDS011;8072;52.554;7.966;2023-06-04T08:26:47;3.53;;;2.47;;
15946;SDS011;8072;52.554;7.966;2023-06-04T08:29:13;4.43;;;2.40;;
15946;SDS011;8072;52.554;7.966;2023-06-04T08:31:39;6.60;;;2.20;;
15946;SDS011;8072;52.554;7.966;2023-06-04T08:34:04;5.53;;;2.37;;
15946;SDS011;8072;52.554;7.966;2023-06-04T08:36:30;2.37;;;1.50;;
15946;SDS011;8072;52.554;7.966;2023-06-04T08:38:57;3.73;;;2.20;;
15946;SDS011;8072;52.554;7.966;2023-06-04T08:41:33;3.57;;;1.93;;
15946;SDS011;8072;52.554;7.966;2023-06-04T08:44:07;2.57;;;1.60;;
15946;SDS011;8072;52.554;7.966;2023-06-04T08:46:38;3.00;;;1.90;;
15946;SDS011;8072;52.554;7.966;2023-06-04T08:49:07;3.93;;;2.07;;
15946;SDS011;8072;52.554;7.966;2023-06-04T08:51:35;4.75;;;2.33;;
15946;SDS011;8072;52.554;7.966;2023-06-04T08:54:05;2.87;;;2.03;;
15946;SDS011;8072;52.554;7.966;2023-06-04T08:56:35;3.72;;;2.17;;
15946;SDS011;8072;52.554;7.966;2023-06-04T08:59:02;2.90;;;1.98;;
15946;SDS011;8072;52.554;7.966;2023-06-04T09:01:30;4.28;;;2.08;;
15946;SDS011;8072;52.554;7.966;2023-06-04T09:03:58;2.38;;;1.70;;
15946;SDS011;8072;52.554;7.966;2023-06-04T09:06:25;1.83;;;1.50;;
15946;SDS011;8072;52.554;7.966;2023-06-04T09:08:51;2.15;;;1.50;;
15946;SDS011;8072;52.554;7.966;2023-06-04T09:11:22;3.58;;;1.50;;
15946;SDS011;8072;52.554;7.966;2023-06-04T09:13:52;3.08;;;1.40;;
15946;SDS011;8072;52.554;7.966;2023-06-04T09:16:19;3.67;;;1.60;;
15946;SDS011;8072;52.554;7.966;2023-06-04T09:18:45;2.15;;;1.52;;
15946;SDS011;8072;52.554;7.966;2023-06-04T09:21:11;2.17;;;1.50;;
15946;SDS011;8072;52.554;7.966;2023-06-04T09:23:46;2.40;;;1.33;;
15946;SDS011;8072;52.554;7.966;2023-06-04T09:26:13;2.42;;;1.45;;
15946;SDS011;8072;52.554;7.966;2023-06-04T09:28:40;2.22;;;1.10;;
15946;SDS011;8072;52.554;7.966;2023-06-04T09:31:25;4.75;;;1.20;;
15946;SDS011;8072;52.554;7.966;2023-06-04T09:33:51;2.58;;;1.35;;
15946;SDS011;8072;52.554;7.966;2023-06-04T09:36:17;2.30;;;1.50;;
15946;SDS011;8072;52.554;7.966;2023-06-04T09:38:43;3.75;;;1.20;;
15946;SDS011;8072;52.554;7.966;2023-06-04T09:41:11;5.95;;;1.30;;
15946;SDS011;8072;52.554;7.966;2023-06-04T09:43:41;1.98;;;1.20;;
15946;SDS011;8072;52.554;7.966;2023-06-04T09:46:12;2.83;;;1.10;;
15946;SDS011;8072;52.554;7.966;2023-06-04T09:48:38;6.50;;;1.70;;
15946;SDS011;8072;52.554;7.966;2023-06-04T09:51:09;2.55;;;1.30;;
15946;SDS011;8072;52.554;7.966;2023-06-04T09:53:37;1.77;;;1.30;;
15946;SDS011;8072;52.554;7.966;2023-06-04T09:56:04;5.72;;;1.20;;
15946;SDS011;8072;52.554;7.966;2023-06-04T09:58:36;2.88;;;1.13;;
15946;SDS011;8072;52.554;7.966;2023-06-04T10:01:03;1.95;;;1.20;;
15946;SDS011;8072;52.554;7.966;2023-06-04T10:03:34;1.40;;;0.80;;
15946;SDS011;8072;52.554;7.966;2023-06-04T10:06:05;1.38;;;0.90;;
15946;SDS011;8072;52.554;7.966;2023-06-04T10:08:32;2.75;;;1.15;;
15946;SDS011;8072;52.554;7.966;2023-06-04T10:10:59;4.03;;;1.00;;
15946;SDS011;8072;52.554;7.966;2023-06-04T10:13:30;3.70;;;2.17;;
15946;SDS011;8072;52.554;7.966;2023-06-04T10:16:02;2.08;;;1.38;;
15946;SDS011;8072;52.554;7.966;2023-06-04T10:18:30;2.08;;;1.35;;
15946;SDS011;8072;52.554;7.966;2023-06-04T10:20:56;1.15;;;1.00;;
15946;SDS011;8072;52.554;7.966;2023-06-04T10:23:24;2.15;;;1.10;;
15946;SDS011;8072;52.554;7.966;2023-06-04T10:25:50;3.33;;;1.05;;
15946;SDS011;8072;52.554;7.966;2023-06-04T10:28:19;4.10;;;1.40;;
15946;SDS011;8072;52.554;7.966;2023-06-04T10:30:49;3.47;;;1.10;;
15946;SDS011;8072;52.554;7.966;2023-06-04T10:33:21;3.42;;;1.15;;
15946;SDS011;8072;52.554;7.966;2023-06-04T10:35:49;2.35;;;1.10;;
15946;SDS011;8072;52.554;7.966;2023-06-04T10:38:19;2.60;;;1.20;;
15946;SDS011;8072;52.554;7.966;2023-06-04T10:40:46;1.55;;;1.10;;
15946;SDS011;8072;52.554;7.966;2023-06-04T10:43:13;2.38;;;1.10;;
15946;SDS011;8072;52.554;7.966;2023-06-04T10:45:41;2.60;;;1.15;;
15946;SDS011;8072;52.554;7.966;2023-06-04T10:48:08;1.70;;;1.10;;
15946;SDS011;8072;52.554;7.966;2023-06-04T10:50:47;2.30;;;1.33;;
15946;SDS011;8072;52.554;7.966;2023-06-04T10:53:15;3.33;;;1.60;;
15946;SDS011;8072;52.554;7.966;2023-06-04T10:55:48;1.42;;;1.33;;
15946;SDS011;8072;52.554;7.966;2023-06-04T10:58:14;3.00;;;1.08;;
15946;SDS011;8072;52.554;7.966;2023-06-04T11:00:42;2.95;;;1.17;;
15946;SDS011;8072;52.554;7.966;2023-06-04T11:03:10;2.95;;;1.20;;
15946;SDS011;8072;52.554;7.966;2023-06-04T11:05:37;3.25;;;1.20;;
15946;SDS011;8072;52.554;7.966;2023-06-04T11:08:07;3.03;;;1.38;;
15946;SDS011;8072;52.554;7.966;2023-06-04T11:10:39;2.30;;;1.10;;
15946;SDS011;8072;52.554;7.966;2023-06-04T11:13:06;1.90;;;1.13;;
15946;SDS011;8072;52.554;7.966;2023-06-04T11:15:41;3.88;;;1.77;;
15946;SDS011;8072;52.554;7.966;2023-06-04T11:18:13;4.32;;;1.48;;
15946;SDS011;8072;52.554;7.966;2023-06-04T11:20:40;3.97;;;1.25;;
15946;SDS011;8072;52.554;7.966;2023-06-04T11:23:07;2.13;;;1.00;;
15946;SDS011;8072;52.554;7.966;2023-06-04T11:25:33;1.60;;;1.20;;
15946;SDS011;8072;52.554;7.966;2023-06-04T11:27:59;1.45;;;1.02;;
15946;SDS011;8072;52.554;7.966;2023-06-04T11:30:26;1.48;;;1.10;;
15946;SDS011;8072;52.554;7.966;2023-06-04T11:32:59;1.77;;;1.00;;
15946;SDS011;8072;52.554;7.966;2023-06-04T11:35:26;2.38;;;1.27;;
15946;SDS011;8072;52.554;7.966;2023-06-04T11:37:53;1.20;;;1.00;;
15946;SDS011;8072;52.554;7.966;2023-06-04T11:40:20;3.08;;;1.55;;
15946;SDS011;8072;52.554;7.966;2023-06-04T11:42:46;2.20;;;1.20;;
15946;SDS011;8072;52.554;7.966;2023-06-04T11:45:13;1.30;;;1.05;;
15946;SDS011;8072;52.554;7.966;2023-06-04T11:47:41;2.25;;;1.20;;
15946;SDS011;8072;52.554;7.966;2023-06-04T11:50:11;1.90;;;1.20;;
15946;SDS011;8072;52.554;7.966;2023-06-04T11:52:37;1.60;;;1.10;;
15946;SDS011;8072;52.554;7.966;2023-06-04T11:55:04;2.58;;;1.23;;
15946;SDS011;8072;52.554;7.966;2023-06-04T11:57:34;3.72;;;1.40;;
15946;SDS011;8072;52.554;7.966;2023-06-04T12:00:01;2.40;;;1.20;;
15946;SDS011;8072;52.554;7.966;2023-06-04T12:02:27;1.95;;;1.10;;
15946;SDS011;8072;52.554;7.966;2023-06-04T12:04:52;3.42;;;1.30;;
15946;SDS011;8072;52.554;7.966;2023-06-04T12:07:21;3.75;;;1.50;;
15946;SDS011;8072;52.554;7.966;2023-06-04T12:09:49;1.73;;;1.20;;
15946;SDS011;8072;52.554;7.966;2023-06-04T12:12:20;2.33;;;1.27;;
15946;SDS011;8072;52.554;7.966;2023-06-04T12:14:55;5.65;;;1.35;;
15946;SDS011;8072;52.554;7.966;2023-06-04T12:17:24;5.78;;;1.30;;
15946;SDS011;8072;52.554;7.966;2023-06-04T12:19:50;3.95;;;1.30;;
15946;SDS011;8072;52.554;7.966;2023-06-04T12:22:18;2.28;;;1.45;;
15946;SDS011;8072;52.554;7.966;2023-06-04T12:24:51;2.10;;;1.20;;
15946;SDS011;8072;52.554;7.966;2023-06-04T12:27:25;3.10;;;1.35;;
15946;SDS011;8072;52.554;7.966;2023-06-04T12:29:58;2.03;;;1.27;;
15946;SDS011;8072;52.554;7.966;2023-06-04T12:32:26;2.13;;;1.25;;
15946;SDS011;8072;52.554;7.966;2023-06-04T12:34:52;1.77;;;1.08;;
15946;SDS011;8072;52.554;7.966;2023-06-04T12:37:18;2.75;;;1.02;;
15946;SDS011;8072;52.554;7.966;2023-06-04T12:39:43;3.15;;;1.48;;
15946;SDS011;8072;52.554;7.966;2023-06-04T12:42:09;1.13;;;1.00;;
15946;SDS011;8072;52.554;7.966;2023-06-04T12:44:35;2.88;;;1.30;;
15946;SDS011;8072;52.554;7.966;2023-06-04T12:47:02;2.13;;;1.40;;
15946;SDS011;8072;52.554;7.966;2023-06-04T12:49:28;4.75;;;1.73;;
15946;SDS011;8072;52.554;7.966;2023-06-04T12:51:54;1.75;;;1.20;;
15946;SDS011;8072;52.554;7.966;2023-06-04T12:54:19;2.80;;;1.23;;
15946;SDS011;8072;52.554;7.966;2023-06-04T12:56:45;1.80;;;1.17;;
15946;SDS011;8072;52.554;7.966;2023-06-04T12:59:12;1.45;;;1.10;;
15946;SDS011;8072;52.554;7.966;2023-06-04T13:01:38;2.65;;;1.20;;
15946;SDS011;8072;52.554;7.966;2023-06-04T13:04:04;1.75;;;1.38;;
15946;SDS011;8072;52.554;7.966;2023-06-04T13:06:31;3.53;;;2.03;;
15946;SDS011;8072;52.554;7.966;2023-06-04T13:08:59;3.65;;;1.30;;
15946;SDS011;8072;52.554;7.966;2023-06-04T13:11:25;3.05;;;1.48;;
15946;SDS011;8072;52.554;7.966;2023-06-04T13:13:50;1.92;;;1.30;;
15946;SDS011;8072;52.554;7.966;2023-06-04T13:16:16;4.00;;;1.15;;
15946;SDS011;8072;52.554;7.966;2023-06-04T13:18:42;1.58;;;1.10;;
15946;SDS011;8072;52.554;7.966;2023-06-04T13:21:08;3.28;;;1.50;;
15946;SDS011;8072;52.554;7.966;2023-06-04T13:23:33;3.35;;;1.35;;
15946;SDS011;8072;52.554;7.966;2023-06-04T13:25:59;1.58;;;1.30;;
15946;SDS011;8072;52.554;7.966;2023-06-04T13:28:26;1.80;;;1.13;;
15946;SDS011;8072;52.554;7.966;2023-06-04T13:30:52;2.53;;;1.60;;
15946;SDS011;8072;52.554;7.966;2023-06-04T13:33:17;1.88;;;1.30;;
15946;SDS011;8072;52.554;7.966;2023-06-04T13:35:44;2.58;;;1.23;;
15946;SDS011;8072;52.554;7.966;2023-06-04T13:38:10;2.22;;;1.20;;
15946;SDS011;8072;52.554;7.966;2023-06-04T13:40:38;2.63;;;1.20;;
15946;SDS011;8072;52.554;7.966;2023-06-04T13:43:04;3.22;;;1.30;;
15946;SDS011;8072;52.554;7.966;2023-06-04T13:45:32;2.38;;;1.23;;
15946;SDS011;8072;52.554;7.966;2023-06-04T13:47:58;2.70;;;1.60;;
15946;SDS011;8072;52.554;7.966;2023-06-04T13:50:30;2.00;;;1.30;;
15946;SDS011;8072;52.554;7.966;2023-06-04T13:52:56;8.85;;;1.85;;
15946;SDS011;8072;52.554;7.966;2023-06-04T13:55:22;3.15;;;1.63;;
15946;SDS011;8072;52.554;7.966;2023-06-04T13:57:48;2.22;;;1.40;;
15946;SDS011;8072;52.554;7.966;2023-06-04T14:00:14;2.45;;;1.15;;
15946;SDS011;8072;52.554;7.966;2023-06-04T14:02:40;4.10;;;1.20;;
15946;SDS011;8072;52.554;7.966;2023-06-04T14:05:06;1.50;;;1.20;;
15946;SDS011;8072;52.554;7.966;2023-06-04T14:07:32;1.52;;;1.10;;
15946;SDS011;8072;52.554;7.966;2023-06-04T14:09:58;3.00;;;1.17;;
15946;SDS011;8072;52.554;7.966;2023-06-04T14:12:23;3.13;;;1.20;;
15946;SDS011;8072;52.554;7.966;2023-06-04T14:14:50;3.83;;;1.27;;
15946;SDS011;8072;52.554;7.966;2023-06-04T14:17:16;5.22;;;1.40;;
15946;SDS011;8072;52.554;7.966;2023-06-04T14:19:42;2.55;;;1.42;;
15946;SDS011;8072;52.554;7.966;2023-06-04T14:22:09;4.15;;;1.40;;
15946;SDS011;8072;52.554;7.966;2023-06-04T14:24:37;2.42;;;1.33;;
15946;SDS011;8072;52.554;7.966;2023-06-04T14:27:05;1.92;;;1.00;;
15946;SDS011;8072;52.554;7.966;2023-06-04T14:29:32;2.28;;;1.30;;
15946;SDS011;8072;52.554;7.966;2023-06-04T14:31:57;2.90;;;1.40;;
15946;SDS011;8072;52.554;7.966;2023-06-04T14:34:23;1.58;;;1.00;;
15946;SDS011;8072;52.554;7.966;2023-06-04T14:36:49;2.25;;;1.30;;
15946;SDS011;8072;52.554;7.966;2023-06-04T14:39:15;2.05;;;1.60;;
15946;SDS011;8072;52.554;7.966;2023-06-04T14:41:40;3.03;;;1.50;;
15946;SDS011;8072;52.554;7.966;2023-06-04T14:44:06;4.68;;;1.63;;
15946;SDS011;8072;52.554;7.966;2023-06-04T14:46:32;7.75;;;2.00;;
15946;SDS011;8072;52.554;7.966;2023-06-04T14:48:58;5.13;;;1.85;;
15946;SDS011;8072;52.554;7.966;2023-06-04T14:51:23;2.88;;;1.48;;
15946;SDS011;8072;52.554;7.966;2023-06-04T14:53:49;2.85;;;1.30;;
15946;SDS011;8072;52.554;7.966;2023-06-04T14:56:16;3.55;;;1.67;;
15946;SDS011;8072;52.554;7.966;2023-06-04T14:58:43;2.67;;;1.20;;
15946;SDS011;8072;52.554;7.966;2023-06-04T15:01:12;1.48;;;1.02;;
15946;SDS011;8072;52.554;7.966;2023-06-04T15:03:38;3.38;;;1.52;;
15946;SDS011;8072;52.554;7.966;2023-06-04T15:06:05;2.17;;;1.30;;
15946;SDS011;8072;52.554;7.966;2023-06-04T15:08:30;2.85;;;1.30;;
15946;SDS011;8072;52.554;7.966;2023-06-04T15:10:56;1.35;;;1.02;;